Time;durP1;ratioP1;P1;durP2;ratioP2;P2;SDS_P1;SDS_P2;PMS_P1;PMS_P2;Temp;Humidity;BMP_temperature;BMP_pressure;BME280_temperature;BME280_humidity;BME280_pressure;Samples;Min_cycle;Max_cycle;Signal;HPM_P1;HPM_P2
2021/10/12 00:01:04;;;;;;;61.90;34.10;;;9.20;68.50;;;;;;5037173;28;20030;-38
2021/10/12 00:03:30;;;;;;;63.95;35.60;;;9.20;68.50;;;;;;5037553;28;20108;-34
2021/10/12 00:05:56;;;;;;;59.45;35.40;;;9.20;68.60;;;;;;5036949;28;20025;-38
2021/10/12 00:08:21;;;;;;;61.90;35.55;;;9.20;68.70;;;;;;5037021;28;20114;-35
2021/10/12 00:10:47;;;;;;;60.30;33.50;;;9.20;68.70;;;;;;5037429;28;20042;-39
2021/10/12 00:13:13;;;;;;;59.20;33.90;;;9.20;68.60;;;;;;5037060;28;20104;-39
2021/10/12 00:15:39;;;;;;;51.03;31.05;;;9.20;68.50;;;;;;5036864;28;20026;-39
2021/10/12 00:18:05;;;;;;;62.38;33.88;;;9.20;68.60;;;;;;5036847;28;20037;-35
2021/10/12 00:20:30;;;;;;;57.80;34.72;;;9.20;68.70;;;;;;5036782;28;20440;-34
2021/10/12 00:22:56;;;;;;;56.50;34.67;;;9.30;68.80;;;;;;5037160;28;20052;-35
2021/10/12 00:25:22;;;;;;;66.13;37.90;;;9.30;68.90;;;;;;5036596;28;20034;-35
2021/10/12 00:27:49;;;;;;;61.67;34.38;;;9.30;68.80;;;;;;5036700;28;20021;-35
2021/10/12 00:30:15;;;;;;;59.38;35.50;;;9.30;68.80;;;;;;5036702;28;20321;-35
2021/10/12 00:32:40;;;;;;;55.22;33.33;;;9.30;68.90;;;;;;5036652;28;20108;-34
2021/10/12 00:35:06;;;;;;;61.97;37.60;;;9.30;68.90;;;;;;5036499;28;20057;-40
2021/10/12 00:37:32;;;;;;;62.72;36.10;;;9.30;69.00;;;;;;5036689;28;20052;-39
2021/10/12 00:39:58;;;;;;;63.45;35.55;;;9.20;69.00;;;;;;5036323;28;20068;-38
2021/10/12 00:42:24;;;;;;;69.35;37.08;;;9.20;69.60;;;;;;5036515;28;20030;-39
2021/10/12 00:44:50;;;;;;;64.05;37.83;;;9.20;69.10;;;;;;5036840;28;20040;-39
2021/10/12 00:47:15;;;;;;;58.10;34.15;;;9.20;69.20;;;;;;5036163;28;20025;-35
2021/10/12 00:49:41;;;;;;;60.38;37.22;;;9.20;69.40;;;;;;5036173;28;20382;-38
2021/10/12 00:52:07;;;;;;;63.95;37.20;;;9.20;69.40;;;;;;5036192;28;20365;-35
2021/10/12 00:54:32;;;;;;;59.58;35.17;;;9.20;69.50;;;;;;5036169;28;20068;-36
2021/10/12 00:56:58;;;;;;;59.03;36.05;;;9.20;69.50;;;;;;5035850;28;20098;-37
2021/10/12 00:59:24;;;;;;;57.60;33.25;;;9.20;69.50;;;;;;5035731;28;20117;-34
2021/10/12 01:01:49;;;;;;;56.97;34.25;;;9.20;69.50;;;;;;5035420;28;20068;-38
2021/10/12 01:04:15;;;;;;;54.85;32.03;;;9.10;69.50;;;;;;5036117;28;20037;-37
2021/10/12 01:06:41;;;;;;;52.20;30.50;;;9.20;69.60;;;;;;5035817;28;20422;-38
2021/10/12 01:09:06;;;;;;;56.75;33.28;;;9.20;69.70;;;;;;5035927;28;20073;-39
2021/10/12 01:11:35;;;;;;;54.35;33.00;;;9.20;70.00;;;;;;5035927;28;20052;-43
2021/10/12 01:14:02;;;;;;;62.92;34.35;;;9.20;70.10;;;;;;5035722;28;20079;-34
2021/10/12 01:16:28;;;;;;;61.90;32.78;;;9.20;70.30;;;;;;5035725;28;20022;-37
2021/10/12 01:19:06;;;;;;;57.60;33.05;;;9.30;70.10;;;;;;5035859;28;20036;-34
2021/10/12 01:21:45;;;;;;;63.90;33.28;;;9.30;70.00;;;;;;5035586;28;20479;-38
2021/10/12 01:24:12;;;;;;;56.22;34.95;;;9.30;69.90;;;;;;5035697;28;20041;-39
2021/10/12 01:26:42;;;;;;;59.65;34.53;;;9.30;70.00;;;;;;5035607;28;20415;-38
2021/10/12 01:29:10;;;;;;;53.30;32.95;;;9.20;70.10;;;;;;5035387;28;20037;-37
2021/10/12 01:31:36;;;;;;;56.92;34.38;;;9.20;70.60;;;;;;5035351;28;20014;-34
2021/10/12 01:34:18;;;;;;;54.72;32.78;;;9.20;70.00;;;;;;5035418;28;20048;-34
2021/10/12 01:36:43;;;;;;;65.13;35.95;;;9.20;70.10;;;;;;5035532;28;20100;-39
2021/10/12 01:39:09;;;;;;;51.65;32.20;;;9.20;70.10;;;;;;5035412;28;20112;-34
2021/10/12 01:41:35;;;;;;;54.88;32.95;;;9.20;70.10;;;;;;5035353;28;20037;-35
2021/10/12 01:44:02;;;;;;;58.30;33.20;;;9.10;70.00;;;;;;5035319;28;20083;-37
2021/10/12 01:46:27;;;;;;;50.25;31.73;;;9.10;70.00;;;;;;5035492;28;20140;-38
2021/10/12 01:48:53;;;;;;;49.70;31.65;;;9.10;70.10;;;;;;5035910;28;20489;-38
2021/10/12 01:51:20;;;;;;;53.78;31.83;;;9.10;70.10;;;;;;5034873;28;20033;-36
2021/10/12 01:53:45;;;;;;;57.22;31.45;;;9.10;70.10;;;;;;5035957;28;20409;-35
2021/10/12 01:56:11;;;;;;;54.35;33.10;;;9.10;70.00;;;;;;5034782;28;20053;-38
2021/10/12 01:58:37;;;;;;;54.65;34.42;;;9.10;70.10;;;;;;5035479;28;20041;-35
2021/10/12 02:01:02;;;;;;;52.45;32.60;;;9.10;70.20;;;;;;5035357;28;20026;-39
2021/10/12 02:03:28;;;;;;;52.95;31.20;;;9.10;70.30;;;;;;5035834;28;20087;-35
2021/10/12 02:05:54;;;;;;;52.83;33.88;;;9.10;70.40;;;;;;5035123;28;20303;-38
2021/10/12 02:08:20;;;;;;;62.55;35.88;;;9.00;70.60;;;;;;5035460;28;20065;-38
2021/10/12 02:10:45;;;;;;;61.88;34.83;;;9.10;70.80;;;;;;5034928;28;20025;-39
2021/10/12 02:13:11;;;;;;;55.33;30.45;;;9.10;71.00;;;;;;5038171;28;20029;-38
2021/10/12 02:15:37;;;;;;;58.10;31.38;;;9.00;71.00;;;;;;5039046;28;20036;-35
2021/10/12 02:18:02;;;;;;;57.08;33.60;;;9.10;71.10;;;;;;5039098;28;20041;-35
2021/10/12 02:20:28;;;;;;;61.65;33.50;;;9.10;71.00;;;;;;5039046;28;20059;-35
2021/10/12 02:22:54;;;;;;;59.15;33.97;;;9.10;71.00;;;;;;5039265;28;20037;-34
2021/10/12 02:25:19;;;;;;;56.75;33.17;;;9.10;71.10;;;;;;5038833;28;20030;-39
2021/10/12 02:27:45;;;;;;;54.83;31.17;;;9.10;71.20;;;;;;5039022;28;20032;-34
2021/10/12 02:30:12;;;;;;;54.88;32.47;;;9.10;71.20;;;;;;5038632;28;20113;-35
2021/10/12 02:32:38;;;;;;;65.72;34.88;;;9.20;71.30;;;;;;5038994;28;20033;-34
2021/10/12 02:35:05;;;;;;;62.17;36.10;;;9.20;71.40;;;;;;5039002;28;20318;-38
2021/10/12 02:37:31;;;;;;;58.45;35.72;;;9.20;71.40;;;;;;5038794;28;20030;-40
2021/10/12 02:39:56;;;;;;;61.38;36.47;;;9.20;71.50;;;;;;5038562;28;20487;-38
2021/10/12 02:42:22;;;;;;;67.00;35.53;;;9.30;71.50;;;;;;5037528;28;20033;-34
2021/10/12 02:44:48;;;;;;;55.50;33.22;;;9.30;71.40;;;;;;5037587;28;20088;-39
2021/10/12 02:47:13;;;;;;;51.17;32.50;;;9.30;71.50;;;;;;5038454;28;20029;-37
2021/10/12 02:49:39;;;;;;;57.13;32.85;;;9.30;71.50;;;;;;5038491;28;20021;-39
2021/10/12 02:52:05;;;;;;;57.63;33.38;;;9.30;71.50;;;;;;5038443;28;20086;-38
2021/10/12 02:54:31;;;;;;;61.05;34.63;;;9.30;71.50;;;;;;5038328;28;20048;-34
2021/10/12 02:56:57;;;;;;;58.72;32.17;;;9.30;71.60;;;;;;5038309;28;20045;-38
2021/10/12 02:59:23;;;;;;;58.20;35.85;;;9.40;71.60;;;;;;5038350;28;20045;-34
2021/10/12 03:01:48;;;;;;;59.22;36.85;;;9.40;71.70;;;;;;5038491;28;20432;-38
2021/10/12 03:04:14;;;;;;;57.83;33.95;;;9.40;71.70;;;;;;5038467;28;20425;-34
2021/10/12 03:06:41;;;;;;;58.83;34.17;;;9.40;71.70;;;;;;5038108;28;20036;-38
2021/10/12 03:09:07;;;;;;;61.03;36.67;;;9.40;71.70;;;;;;5037830;28;20033;-34
2021/10/12 03:11:32;;;;;;;57.33;33.78;;;9.40;71.80;;;;;;5038043;28;20120;-35
2021/10/12 03:13:58;;;;;;;60.60;34.42;;;9.30;72.30;;;;;;5038696;28;20033;-41
2021/10/12 03:16:24;;;;;;;53.92;33.67;;;9.40;72.30;;;;;;5037899;28;20377;-34
2021/10/12 03:18:49;;;;;;;61.22;36.03;;;9.40;71.80;;;;;;5038273;28;20029;-38
2021/10/12 03:21:15;;;;;;;55.22;32.92;;;9.40;71.70;;;;;;5037810;28;20061;-34
2021/10/12 03:23:42;;;;;;;54.95;33.15;;;9.30;71.60;;;;;;5038093;28;20138;-39
2021/10/12 03:26:07;;;;;;;63.60;37.65;;;9.30;71.70;;;;;;5037563;28;20045;-39
2021/10/12 03:28:33;;;;;;;58.53;34.10;;;9.30;71.70;;;;;;5038193;28;20311;-39
2021/10/12 03:30:58;;;;;;;58.40;34.65;;;9.30;71.70;;;;;;5037996;28;20037;-35
2021/10/12 03:33:24;;;;;;;63.65;37.90;;;9.30;71.70;;;;;;5038039;28;20416;-34
2021/10/12 03:35:57;;;;;;;56.90;33.90;;;9.30;71.80;;;;;;5037812;28;20061;-34
2021/10/12 03:38:24;;;;;;;62.75;36.58;;;9.30;71.80;;;;;;5037728;28;20459;-34
2021/10/12 03:40:50;;;;;;;59.92;36.03;;;9.30;71.80;;;;;;5036600;28;20041;-34
2021/10/12 03:43:17;;;;;;;63.08;38.88;;;9.30;71.90;;;;;;5037777;28;20030;-38
2021/10/12 03:45:42;;;;;;;66.35;36.58;;;9.40;72.00;;;;;;5037705;28;20040;-35
2021/10/12 03:48:08;;;;;;;59.03;32.10;;;9.40;72.10;;;;;;5037422;28;20390;-37
2021/10/12 03:50:34;;;;;;;50.92;32.17;;;9.30;72.00;;;;;;5037657;28;20036;-34
2021/10/12 03:53:00;;;;;;;48.97;31.75;;;9.30;72.00;;;;;;5037481;28;20349;-34
2021/10/12 03:55:26;;;;;;;49.78;30.42;;;9.30;72.00;;;;;;5037331;28;20048;-34
2021/10/12 03:57:52;;;;;;;53.25;32.15;;;9.40;72.10;;;;;;5037200;28;20384;-35
2021/10/12 04:00:18;;;;;;;50.63;32.38;;;9.40;72.10;;;;;;5037445;28;20029;-38
2021/10/12 04:02:43;;;;;;;56.53;34.28;;;9.40;72.20;;;;;;5037269;28;20412;-34
2021/10/12 04:05:09;;;;;;;50.08;30.83;;;9.40;72.20;;;;;;5037062;28;20052;-34
2021/10/12 04:07:35;;;;;;;48.47;29.30;;;9.40;72.40;;;;;;5037057;28;20402;-39
2021/10/12 04:10:01;;;;;;;66.45;34.88;;;9.40;72.50;;;;;;5036746;28;20034;-33
2021/10/12 04:12:26;;;;;;;61.90;35.78;;;9.40;72.70;;;;;;5036848;28;20033;-38
2021/10/12 04:14:52;;;;;;;53.40;31.33;;;9.40;72.70;;;;;;5037116;28;20084;-37
2021/10/12 04:17:18;;;;;;;48.10;29.60;;;9.40;72.70;;;;;;5036723;28;20349;-34
2021/10/12 04:19:44;;;;;;;47.70;28.20;;;9.40;72.80;;;;;;5036985;28;20042;-34
2021/10/12 04:22:10;;;;;;;56.38;28.83;;;9.40;72.90;;;;;;5036497;28;20322;-38
2021/10/12 04:24:37;;;;;;;47.83;29.80;;;9.40;73.10;;;;;;5036658;28;20034;-38
2021/10/12 04:27:04;;;;;;;41.42;24.23;;;9.40;73.20;;;;;;5036888;28;20340;-35
2021/10/12 04:29:30;;;;;;;39.13;24.95;;;9.40;73.30;;;;;;5036321;28;20041;-38
2021/10/12 04:31:56;;;;;;;45.10;27.13;;;9.50;73.30;;;;;;5036357;28;20060;-37
2021/10/12 04:34:21;;;;;;;43.03;27.70;;;9.50;73.40;;;;;;5035821;28;20033;-38
2021/10/12 04:36:47;;;;;;;46.45;27.13;;;9.50;73.40;;;;;;5036278;28;20426;-34
2021/10/12 04:39:13;;;;;;;43.65;25.77;;;9.50;73.40;;;;;;5036197;28;20037;-35
2021/10/12 04:41:39;;;;;;;36.72;24.08;;;9.60;73.40;;;;;;5035946;28;20033;-34
2021/10/12 04:44:09;;;;;;;44.80;27.77;;;9.60;73.30;;;;;;5035959;28;20041;-39
2021/10/12 04:46:34;;;;;;;42.22;26.23;;;9.60;73.40;;;;;;5035999;28;20040;-39
2021/10/12 04:49:00;;;;;;;48.03;27.95;;;9.60;73.30;;;;;;5035844;28;20037;-39
2021/10/12 04:51:26;;;;;;;48.60;26.40;;;9.70;73.40;;;;;;5036343;28;20116;-36
2021/10/12 04:53:51;;;;;;;52.13;29.25;;;9.70;73.50;;;;;;5036468;28;20025;-34
2021/10/12 04:56:17;;;;;;;48.22;26.40;;;9.70;73.50;;;;;;5035643;28;20072;-39
2021/10/12 04:58:42;;;;;;;43.78;25.83;;;9.80;73.60;;;;;;5035981;28;20036;-38
2021/10/12 05:01:08;;;;;;;51.50;25.10;;;9.80;73.50;;;;;;5035692;28;20041;-36
2021/10/12 05:03:34;;;;;;;44.45;23.60;;;9.90;73.50;;;;;;5036302;28;20087;-39
2021/10/12 05:05:59;;;;;;;35.08;22.70;;;9.90;73.40;;;;;;5035762;28;20034;-38
2021/10/12 05:08:25;;;;;;;42.05;22.88;;;10.00;73.50;;;;;;5035513;28;20428;-38
2021/10/12 05:10:50;;;;;;;39.03;22.85;;;10.00;73.50;;;;;;5035856;28;20033;-38
2021/10/12 05:13:16;;;;;;;37.63;22.52;;;10.10;73.40;;;;;;5038489;28;20029;-38
2021/10/12 05:15:46;;;;;;;54.35;27.88;;;10.10;73.30;;;;;;5044285;28;20037;-35
2021/10/12 05:18:18;;;;;;;52.58;27.80;;;10.10;73.10;;;;;;5034449;28;20495;-34
2021/10/12 05:20:44;;;;;;;47.05;24.80;;;10.20;73.20;;;;;;5035586;28;20116;-40
2021/10/12 05:23:10;;;;;;;67.30;31.98;;;10.30;73.20;;;;;;5035648;28;20125;-40
2021/10/12 05:25:36;;;;;;;52.42;30.45;;;10.30;73.00;;;;;;5035383;28;20095;-36
2021/10/12 05:28:02;;;;;;;49.38;27.30;;;10.40;72.90;;;;;;5035396;28;20041;-39
2021/10/12 05:30:28;;;;;;;43.58;26.70;;;10.40;72.90;;;;;;5035099;28;20033;-39
2021/10/12 05:32:53;;;;;;;71.20;41.17;;;10.40;72.60;;;;;;5035423;28;20041;-34
2021/10/12 05:35:19;;;;;;;76.20;41.63;;;10.50;72.40;;;;;;5035170;28;20091;-34
2021/10/12 05:37:45;;;;;;;149.60;89.97;;;10.60;72.20;;;;;;5035355;28;20112;-39
2021/10/12 05:40:11;;;;;;;69.60;40.25;;;10.70;72.00;;;;;;5034945;28;20485;-34
2021/10/12 05:42:36;;;;;;;63.22;36.20;;;10.70;71.90;;;;;;5035152;28;20099;-35
2021/10/12 05:45:02;;;;;;;66.53;39.72;;;10.70;71.80;;;;;;5034945;28;20373;-34
2021/10/12 05:47:28;;;;;;;54.88;31.30;;;10.80;71.50;;;;;;5035048;28;20037;-35
2021/10/12 05:49:54;;;;;;;50.60;30.48;;;10.90;71.30;;;;;;5035062;28;20069;-39
2021/10/12 05:52:22;;;;;;;41.05;24.30;;;10.90;71.20;;;;;;5035177;28;20033;-40
2021/10/12 05:55:06;;;;;;;38.58;23.63;;;11.00;71.00;;;;;;5034544;28;20044;-40
2021/10/12 05:58:15;;;;;;;32.88;20.90;;;11.00;70.70;;;;;;5034786;28;20456;-39
2021/10/12 06:00:20;;;;;;;44.53;24.38;;;11.10;70.60;;;;;;5034506;28;20073;-40
2021/10/12 06:02:46;;;;;;;37.45;23.45;;;11.20;70.40;;;;;;5035184;28;20448;-35
2021/10/12 06:05:12;;;;;;;35.25;22.58;;;11.20;70.20;;;;;;5035337;28;20029;-35
2021/10/12 06:07:37;;;;;;;34.55;23.08;;;11.30;70.10;;;;;;5034801;28;20044;-35
2021/10/12 06:10:04;;;;;;;42.67;25.88;;;11.40;69.90;;;;;;5034566;28;20453;-38
2021/10/12 06:12:29;;;;;;;46.00;29.17;;;11.40;69.60;;;;;;5034847;28;20025;-34
2021/10/12 06:14:55;;;;;;;46.45;27.63;;;11.50;69.40;;;;;;5034716;28;20455;-38
2021/10/12 06:17:20;;;;;;;38.83;25.63;;;11.50;69.10;;;;;;5034888;28;20022;-39
2021/10/12 06:19:46;;;;;;;33.33;22.48;;;11.60;69.00;;;;;;5034520;28;20029;-33
2021/10/12 06:22:12;;;;;;;41.88;22.58;;;11.70;68.70;;;;;;5034697;28;20029;-33
2021/10/12 06:24:37;;;;;;;37.85;22.70;;;11.70;68.60;;;;;;5034763;28;20116;-39
2021/10/12 06:27:03;;;;;;;37.15;23.00;;;11.80;68.50;;;;;;5034665;28;20028;-40
2021/10/12 06:29:29;;;;;;;35.47;21.70;;;11.90;68.30;;;;;;5034390;28;20094;-33
2021/10/12 06:31:55;;;;;;;36.08;22.02;;;11.90;68.60;;;;;;5034613;28;20303;-39
2021/10/12 06:34:20;;;;;;;34.38;21.33;;;12.00;67.90;;;;;;5034888;28;20087;-36
2021/10/12 06:36:46;;;;;;;45.85;23.10;;;12.10;67.60;;;;;;5033439;28;20026;-39
2021/10/12 06:39:12;;;;;;;32.25;19.55;;;12.10;67.30;;;;;;5034714;28;20040;-34
2021/10/12 06:41:37;;;;;;;37.97;23.02;;;12.20;67.20;;;;;;5034401;28;20041;-33
2021/10/12 06:44:03;;;;;;;36.63;23.73;;;12.20;66.90;;;;;;5034404;28;20108;-35
2021/10/12 06:46:29;;;;;;;41.58;24.98;;;12.30;66.80;;;;;;5034795;28;20025;-38
2021/10/12 06:48:55;;;;;;;40.45;24.45;;;12.40;66.60;;;;;;5035202;28;20098;-37
2021/10/12 06:51:20;;;;;;;32.13;20.80;;;12.40;66.40;;;;;;5034083;28;20430;-36
2021/10/12 06:53:46;;;;;;;53.80;30.52;;;12.40;66.00;;;;;;5035178;28;20109;-35
2021/10/12 06:56:12;;;;;;;39.10;23.67;;;12.50;65.80;;;;;;5034065;28;20054;-36
2021/10/12 06:58:39;;;;;;;37.88;22.20;;;12.50;65.90;;;;;;5036602;28;20037;-39
2021/10/12 07:01:05;;;;;;;38.65;20.20;;;12.60;66.00;;;;;;5037840;28;20036;-40
2021/10/12 07:03:30;;;;;;;34.35;20.88;;;12.60;65.90;;;;;;5037905;28;20033;-35
2021/10/12 07:05:57;;;;;;;30.77;19.58;;;12.60;66.00;;;;;;5038086;28;20034;-40
2021/10/12 07:08:23;;;;;;;38.40;22.80;;;12.70;65.90;;;;;;5037824;28;20076;-40
2021/10/12 07:10:48;;;;;;;32.28;20.95;;;12.70;65.90;;;;;;5037503;28;20041;-39
2021/10/12 07:13:14;;;;;;;37.33;22.48;;;12.80;65.50;;;;;;5038049;28;20022;-39
2021/10/12 07:15:43;;;;;;;50.67;31.02;;;12.80;65.00;;;;;;5037676;28;20053;-35
2021/10/12 07:18:11;;;;;;;66.55;36.22;;;12.90;64.80;;;;;;5037332;28;20037;-40
2021/10/12 07:20:39;;;;;;;42.10;28.13;;;13.00;64.60;;;;;;5037874;28;20352;-34
2021/10/12 07:23:04;;;;;;;45.85;25.65;;;13.10;64.60;;;;;;5037688;28;20044;-34
2021/10/12 07:25:30;;;;;;;34.28;22.90;;;13.20;63.40;;;;;;5037707;28;20034;-37
2021/10/12 07:27:56;;;;;;;32.60;20.77;;;13.20;62.90;;;;;;5037478;28;20310;-40
2021/10/12 07:30:21;;;;;;;42.63;23.77;;;13.30;62.40;;;;;;5037635;28;20329;-40
2021/10/12 07:32:47;;;;;;;33.33;21.10;;;13.40;62.00;;;;;;5037493;28;20100;-34
2021/10/12 07:35:13;;;;;;;34.28;20.48;;;13.50;62.30;;;;;;5036872;28;20034;-40
2021/10/12 07:37:41;;;;;;;47.30;24.98;;;13.50;62.60;;;;;;5037477;28;20119;-39
2021/10/12 07:40:07;;;;;;;30.90;21.23;;;13.50;62.80;;;;;;5036429;28;20037;-38
2021/10/12 07:42:34;;;;;;;32.30;21.40;;;13.60;62.80;;;;;;5037258;28;20452;-40
2021/10/12 07:45:00;;;;;;;35.17;21.38;;;13.60;62.90;;;;;;5037040;28;20052;-33
2021/10/12 07:47:25;;;;;;;38.20;24.85;;;13.60;63.00;;;;;;5037433;28;20033;-33
2021/10/12 07:49:51;;;;;;;40.00;22.23;;;13.60;63.10;;;;;;5037218;28;20326;-33
2021/10/12 07:52:17;;;;;;;30.33;21.25;;;13.60;63.10;;;;;;5037257;28;20065;-38
2021/10/12 07:54:47;;;;;;;27.92;19.65;;;13.60;63.20;;;;;;5037145;28;20036;-39
2021/10/12 07:57:18;;;;;;;33.15;23.00;;;13.70;63.40;;;;;;5037113;28;20077;-39
2021/10/12 07:59:44;;;;;;;49.90;35.13;;;13.70;63.40;;;;;;5038392;28;20049;-40
2021/10/12 08:02:16;;;;;;;89.15;59.92;;;13.70;63.30;;;;;;5049264;28;20037;-35
2021/10/12 08:04:42;;;;;;;46.85;30.83;;;13.80;63.20;;;;;;5056117;28;20361;-34
2021/10/12 08:07:09;;;;;;;36.10;23.77;;;13.80;63.00;;;;;;5036596;28;20025;-40
2021/10/12 08:09:35;;;;;;;40.65;26.92;;;13.80;62.90;;;;;;5035241;28;20060;-35
2021/10/12 08:12:05;;;;;;;43.50;24.77;;;13.80;62.80;;;;;;5036772;28;20398;-42
2021/10/12 08:14:35;;;;;;;38.88;23.73;;;13.80;62.80;;;;;;5053537;28;20025;-39
2021/10/12 08:17:01;;;;;;;37.22;24.02;;;13.90;62.90;;;;;;5052467;28;20097;-35
2021/10/12 08:19:26;;;;;;;34.05;23.20;;;13.90;62.90;;;;;;5036401;28;20037;-35
2021/10/12 08:21:53;;;;;;;38.08;24.70;;;13.90;62.90;;;;;;5036589;28;20025;-35
2021/10/12 08:24:20;;;;;;;31.95;21.13;;;13.90;62.80;;;;;;5036822;28;20039;-38
2021/10/12 08:26:47;;;;;;;37.72;23.10;;;13.90;62.80;;;;;;5036450;28;20105;-39
2021/10/12 08:29:13;;;;;;;32.35;22.65;;;14.00;62.60;;;;;;5036154;28;20037;-39
2021/10/12 08:31:38;;;;;;;41.70;23.70;;;14.00;62.50;;;;;;5036414;28;20030;-41
2021/10/12 08:34:04;;;;;;;31.05;21.75;;;14.00;62.40;;;;;;5036485;28;20030;-41
2021/10/12 08:36:30;;;;;;;33.35;22.40;;;14.00;62.40;;;;;;5036220;28;20410;-35
2021/10/12 08:38:56;;;;;;;36.95;22.42;;;14.00;62.50;;;;;;5036941;28;20037;-36
2021/10/12 08:41:34;;;;;;;39.53;23.58;;;14.00;62.40;;;;;;5035908;28;20048;-38
2021/10/12 08:43:59;;;;;;;39.70;24.58;;;14.00;62.30;;;;;;5036167;28;20451;-33
2021/10/12 08:46:28;;;;;;;37.10;26.00;;;14.10;62.40;;;;;;5036065;28;20065;-36
2021/10/12 08:48:55;;;;;;;44.95;29.35;;;14.10;62.50;;;;;;5036575;28;20033;-35
2021/10/12 08:51:21;;;;;;;38.30;23.67;;;14.10;62.50;;;;;;5035430;28;20699;-34
2021/10/12 08:53:47;;;;;;;30.90;21.17;;;14.20;62.50;;;;;;5036416;28;20036;-39
2021/10/12 08:56:12;;;;;;;34.95;21.30;;;14.20;62.50;;;;;;5046587;28;20075;-39
2021/10/12 08:58:38;;;;;;;34.95;21.70;;;14.30;62.40;;;;;;5036385;28;20099;-39
2021/10/12 09:01:08;;;;;;;39.78;26.90;;;14.30;62.10;;;;;;5034273;28;20033;-35
2021/10/12 09:03:44;;;;;;;38.30;23.13;;;14.40;62.20;;;;;;5036136;28;20057;-38
2021/10/12 09:06:10;;;;;;;32.67;21.33;;;14.40;61.90;;;;;;5035579;28;20383;-35
2021/10/12 09:08:41;;;;;;;33.95;19.63;;;14.50;60.40;;;;;;5036153;28;20124;-35
2021/10/12 09:11:20;;;;;;;29.65;19.00;;;14.60;59.90;;;;;;5035445;28;20138;-36
2021/10/12 09:13:49;;;;;;;34.63;19.50;;;14.70;60.00;;;;;;5036214;28;20034;-39
2021/10/12 09:16:17;;;;;;;31.38;19.92;;;14.70;59.70;;;;;;5034228;28;20029;-40
2021/10/12 09:18:49;;;;;;;33.33;20.25;;;14.80;59.90;;;;;;5036159;28;20029;-39
2021/10/12 09:21:28;;;;;;;25.33;15.80;;;14.90;59.50;;;;;;5035145;28;20033;-37
2021/10/12 09:24:05;;;;;;;26.02;14.43;;;15.00;57.40;;;;;;5036246;28;20029;-36
2021/10/12 09:26:34;;;;;;;27.15;17.80;;;15.10;56.40;;;;;;5035268;28;20326;-38
2021/10/12 09:29:35;;;;;;;23.27;15.18;;;15.20;57.00;;;;;;5035358;28;20059;-36
2021/10/12 09:32:01;;;;;;;24.13;17.95;;;15.30;55.90;;;;;;5034727;28;20065;-39
2021/10/12 09:34:35;;;;;;;26.63;17.67;;;15.30;56.40;;;;;;5035255;28;20453;-35
2021/10/12 09:37:01;;;;;;;26.85;17.75;;;15.40;56.90;;;;;;5035268;28;20037;-38
2021/10/12 09:39:37;;;;;;;26.48;16.38;;;15.50;56.10;;;;;;5035079;28;20388;-39
2021/10/12 09:42:04;;;;;;;27.95;17.55;;;15.60;55.60;;;;;;5035004;28;20036;-40
2021/10/12 09:44:30;;;;;;;36.65;20.33;;;15.60;55.60;;;;;;5035285;28;20060;-36
2021/10/12 09:47:08;;;;;;;29.27;18.10;;;15.60;55.90;;;;;;5035032;28;20061;-40
2021/10/12 09:49:34;;;;;;;26.77;18.60;;;15.70;55.80;;;;;;5035163;28;20041;-40
2021/10/12 09:52:08;;;;;;;25.88;17.70;;;15.70;55.40;;;;;;5034978;28;20033;-40
2021/10/12 09:54:57;;;;;;;31.92;20.33;;;15.80;55.30;;;;;;5034957;28;20414;-40
2021/10/12 09:57:27;;;;;;;28.98;17.48;;;15.90;55.60;;;;;;5034643;28;20067;-39
2021/10/12 09:59:53;;;;;;;21.65;15.60;;;15.90;55.10;;;;;;5034997;28;20033;-40
2021/10/12 10:02:20;;;;;;;31.48;20.92;;;16.00;54.30;;;;;;5034697;28;20505;-39
2021/10/12 10:04:47;;;;;;;29.90;20.58;;;16.00;54.10;;;;;;5034664;28;20103;-39
2021/10/12 10:07:41;;;;;;;34.63;22.55;;;16.10;54.20;;;;;;5034993;28;20092;-39
2021/10/12 10:10:07;;;;;;;35.60;23.50;;;16.10;54.50;;;;;;5034693;28;20033;-42
2021/10/12 10:12:34;;;;;;;76.53;45.40;;;16.10;54.50;;;;;;5035032;28;20033;-37
2021/10/12 10:15:00;;;;;;;43.83;28.52;;;16.10;54.60;;;;;;5035007;28;20037;-37
2021/10/12 10:17:26;;;;;;;38.65;23.23;;;16.20;53.60;;;;;;5034994;28;20030;-38
2021/10/12 10:19:52;;;;;;;31.25;19.67;;;16.10;53.90;;;;;;5034676;28;20040;-36
2021/10/12 10:22:37;;;;;;;32.47;20.33;;;16.10;52.90;;;;;;5034250;28;20028;-36
2021/10/12 10:25:23;;;;;;;33.70;20.38;;;16.10;52.10;;;;;;5033985;28;20057;-37
2021/10/12 10:27:48;;;;;;;27.08;18.92;;;16.00;51.60;;;;;;5034721;28;20361;-35
2021/10/12 10:30:23;;;;;;;58.50;34.25;;;16.00;52.20;;;;;;5034354;28;20033;-35
2021/10/12 10:33:00;;;;;;;51.30;28.55;;;16.00;51.90;;;;;;5035487;28;20026;-40
2021/10/12 10:35:44;;;;;;;110.22;60.08;;;15.90;51.00;;;;;;5038906;28;20110;-36
2021/10/12 10:38:25;;;;;;;34.17;20.73;;;15.90;50.90;;;;;;5038676;28;20133;-36
2021/10/12 10:41:11;;;;;;;23.58;14.32;;;15.90;50.50;;;;;;5038616;28;20037;-39
2021/10/12 10:43:49;;;;;;;22.75;13.65;;;15.90;49.50;;;;;;5038956;28;20052;-38
2021/10/12 10:46:33;;;;;;;24.10;15.90;;;15.90;49.30;;;;;;5038127;28;20040;-35
2021/10/12 10:49:09;;;;;;;18.55;12.80;;;15.90;49.20;;;;;;5038361;28;20429;-35
2021/10/12 10:51:55;;;;;;;23.02;13.80;;;15.90;49.20;;;;;;5038233;28;20037;-36
2021/10/12 10:55:00;;;;;;;32.10;15.93;;;15.90;48.90;;;;;;5037976;28;20037;-35
2021/10/12 10:57:26;;;;;;;24.83;13.98;;;16.00;49.10;;;;;;5037903;28;20091;-36
2021/10/12 11:00:18;;;;;;;30.38;15.32;;;15.90;49.20;;;;;;5038302;28;20034;-35
2021/10/12 11:02:47;;;;;;;33.05;16.08;;;16.00;49.10;;;;;;5038351;28;20105;-36
2021/10/12 11:05:38;;;;;;;26.60;14.73;;;16.00;49.10;;;;;;5037860;28;20418;-35
2021/10/12 11:08:18;;;;;;;28.60;14.25;;;16.10;49.10;;;;;;5037810;28;20097;-39
2021/10/12 11:10:47;;;;;;;21.95;13.70;;;16.20;49.10;;;;;;5038316;28;20330;-36
2021/10/12 11:13:26;;;;;;;17.77;12.23;;;16.30;49.20;;;;;;5038198;28;20075;-37
2021/10/12 11:15:52;;;;;;;24.98;13.45;;;16.40;48.90;;;;;;5037729;28;20037;-39
2021/10/12 11:18:18;;;;;;;20.27;13.30;;;16.50;48.90;;;;;;5038091;28;20032;-36
2021/10/12 11:20:51;;;;;;;25.33;13.57;;;16.60;48.50;;;;;;5037876;28;20087;-38
2021/10/12 11:23:26;;;;;;;23.15;14.43;;;16.60;47.90;;;;;;5037781;28;20045;-35
2021/10/12 11:26:16;;;;;;;24.13;12.88;;;16.70;47.60;;;;;;5037543;28;20057;-38
2021/10/12 11:28:46;;;;;;;22.17;12.85;;;16.70;47.20;;;;;;5037235;28;20041;-39
2021/10/12 11:31:15;;;;;;;23.58;13.40;;;16.70;47.50;;;;;;5037405;28;20172;-36
2021/10/12 11:33:43;;;;;;;25.75;13.93;;;16.60;47.40;;;;;;5037774;28;20095;-39
2021/10/12 11:36:10;;;;;;;27.50;14.07;;;16.60;47.50;;;;;;5036956;28;20357;-39
2021/10/12 11:38:50;;;;;;;25.48;14.43;;;16.60;47.60;;;;;;5037599;28;20067;-37
2021/10/12 11:41:15;;;;;;;20.17;13.00;;;16.60;47.50;;;;;;5037061;28;20301;-39
2021/10/12 11:43:43;;;;;;;24.85;15.00;;;16.50;47.80;;;;;;5037721;28;20104;-39
2021/10/12 11:46:10;;;;;;;29.45;14.00;;;16.50;48.50;;;;;;5037214;28;20120;-40
2021/10/12 11:48:37;;;;;;;22.50;13.25;;;16.50;48.00;;;;;;5037736;28;20033;-40
2021/10/12 11:51:22;;;;;;;22.48;14.13;;;16.50;48.00;;;;;;5037323;28;20326;-36
2021/10/12 11:53:49;;;;;;;25.60;14.65;;;16.50;47.90;;;;;;5036464;28;20061;-39
2021/10/12 11:56:15;;;;;;;25.30;15.50;;;16.50;48.10;;;;;;5036475;28;20050;-39
2021/10/12 11:58:42;;;;;;;25.13;14.48;;;16.40;48.20;;;;;;5037651;28;20406;-40
2021/10/12 12:01:12;;;;;;;20.42;13.75;;;16.40;48.40;;;;;;5036928;28;20034;-39
2021/10/12 12:03:40;;;;;;;35.33;23.00;;;16.30;48.70;;;;;;5037203;28;20060;-36
2021/10/12 12:06:06;;;;;;;43.20;22.67;;;16.30;49.20;;;;;;5036665;28;20037;-40
2021/10/12 12:08:32;;;;;;;31.20;16.42;;;16.30;49.60;;;;;;5035990;28;20084;-36
2021/10/12 12:10:59;;;;;;;29.10;15.80;;;16.20;50.10;;;;;;5036808;28;20033;-37
2021/10/12 12:13:31;;;;;;;28.35;16.00;;;16.20;50.60;;;;;;5037238;28;20340;-36
2021/10/12 12:15:57;;;;;;;26.20;16.42;;;16.10;51.10;;;;;;5037002;28;20030;-40
2021/10/12 12:18:24;;;;;;;32.63;18.35;;;16.10;51.50;;;;;;5036938;28;20281;-36
2021/10/12 12:20:55;;;;;;;30.58;17.27;;;16.00;51.80;;;;;;5037037;28;20068;-36
2021/10/12 12:23:33;;;;;;;26.73;15.88;;;15.90;52.20;;;;;;5036408;28;20061;-38
2021/10/12 12:26:00;;;;;;;29.38;15.95;;;15.90;52.60;;;;;;5036180;28;20441;-39
2021/10/12 12:28:26;;;;;;;28.65;15.60;;;15.80;52.50;;;;;;5036613;28;20425;-35
2021/10/12 12:30:52;;;;;;;21.80;14.85;;;15.80;52.60;;;;;;5036041;28;20429;-35
2021/10/12 12:33:17;;;;;;;23.98;15.73;;;15.70;52.80;;;;;;5036425;28;20025;-39
2021/10/12 12:35:46;;;;;;;29.30;15.80;;;15.70;53.00;;;;;;5036297;28;20026;-39